• °C
  • Pobieranie danych...
wx


SEKCJA WYDRUKÓW, pokaż »

METAR EPBY 200500Z 22013KT 9999 BKN003 13/12 Q1010=

METAR EPGD 200500Z 23013KT 9999 OVC005 13/12 Q1006 =

METAR EPKK 200500Z 21003KT 9999 FEW027 BKN044 10/07 Q1018 WS R25 =

METAR EPKT 200500Z 22016KT 9999 FEW035 13/09 Q1017 =

METAR EPLB 200500Z 22010KT 9999 -RA NSC 10/08 Q1017 =

METAR EPLL 200500Z 22006KT 170V250 9999 BKN013 12/09 Q1014 =

METAR EPMO 200500Z 20011KT 9999 FEW006 BKN023 11/11 Q1013 =

METAR EPPO 200500Z 21009KT CAVOK 13/12 Q1012 =

METAR EPRA 200500Z NIL=

METAR EPRZ 200500Z 20015KT 9999 BKN047 11/05 Q1019 =

METAR EPSC 200500Z 18006KT 150V220 9999 FEW008 13/13 Q1008 =

METAR EPSY 200500Z 20012KT 5000 BR BKN007 10/10 Q1011=

METAR EPWA 200500Z 19006KT 9999 BKN020 11/08 Q1014 TEMPO BKN014=

METAR EPWR 200500Z 22006KT CAVOK 13/10 Q1015 =

METAR EPZG 200500Z 18007KT CAVOK 13/12 Q1012 =



Serwisy IMGW-PIB